createdAt,value
2019-01-15T00:00:31.488Z,1.10
2019-01-15T00:01:31.482Z,1.00
2019-01-15T00:02:31.462Z,1.10
2019-01-15T00:03:31.495Z,1.20
2019-01-15T00:04:31.489Z,1.00
2019-01-15T00:05:31.536Z,1.00
2019-01-15T00:06:31.442Z,1.10
2019-01-15T00:07:31.407Z,1.10
2019-01-15T00:08:31.406Z,1.20
2019-01-15T00:09:31.459Z,1.10
2019-01-15T00:10:31.380Z,1.30
2019-01-15T00:11:31.445Z,1.10
2019-01-15T00:12:31.365Z,1.10
2019-01-15T00:13:31.359Z,1.20
2019-01-15T00:14:31.338Z,1.10
2019-01-15T00:15:31.347Z,1.30
2019-01-15T00:16:31.315Z,1.10
2019-01-15T00:17:31.313Z,1.20
2019-01-15T00:18:31.295Z,1.10
2019-01-15T00:19:31.270Z,1.10
2019-01-15T00:20:31.288Z,0.90
2019-01-15T00:21:31.264Z,1.00
2019-01-15T00:22:31.280Z,1.30
2019-01-15T00:23:31.260Z,1.00
2019-01-15T00:24:31.250Z,1.10
2019-01-15T00:25:31.223Z,1.10
2019-01-15T00:26:31.251Z,1.10
2019-01-15T00:27:31.196Z,1.40
2019-01-15T00:28:31.213Z,1.10
2019-01-15T00:29:31.186Z,1.20
2019-01-15T00:30:31.150Z,1.00
2019-01-15T00:31:31.139Z,1.20
2019-01-15T00:32:31.140Z,1.20
2019-01-15T00:33:31.174Z,1.10
2019-01-15T00:34:31.121Z,1.00
2019-01-15T00:35:31.160Z,1.10
2019-01-15T00:36:31.165Z,1.10
2019-01-15T00:37:31.087Z,1.20
2019-01-15T00:38:31.085Z,1.10
2019-01-15T00:39:31.076Z,1.10
2019-01-15T00:40:31.062Z,0.90
2019-01-15T00:41:31.062Z,1.10
2019-01-15T00:42:31.047Z,1.10
2019-01-15T00:43:31.009Z,1.10
2019-01-15T00:44:31.036Z,1.10
2019-01-15T00:45:31.003Z,1.20
2019-01-15T00:46:30.998Z,1.10
2019-01-15T00:47:31.008Z,1.00
2019-01-15T00:48:30.978Z,1.30
2019-01-15T00:49:30.983Z,1.20
2019-01-15T00:50:30.927Z,1.10
2019-01-15T00:51:30.946Z,1.30
2019-01-15T00:52:30.929Z,1.00
2019-01-15T00:53:30.975Z,1.10
2019-01-15T00:54:30.951Z,1.30
2019-01-15T00:55:30.959Z,1.10
2019-01-15T00:56:30.859Z,1.10
2019-01-15T00:57:30.886Z,1.10
2019-01-15T00:58:30.880Z,1.30
2019-01-15T00:59:30.848Z,1.20
2019-01-15T01:00:30.855Z,1.10
2019-01-15T01:01:30.814Z,1.20
2019-01-15T01:02:30.833Z,1.10
2019-01-15T01:03:30.818Z,1.20
2019-01-15T01:04:30.777Z,1.30
2019-01-15T01:05:30.807Z,1.10
2019-01-15T01:06:30.761Z,1.20
2019-01-15T01:07:30.871Z,1.10
2019-01-15T01:08:30.732Z,1.30
2019-01-15T01:09:30.726Z,1.20
2019-01-15T01:10:30.778Z,1.30
2019-01-15T01:11:30.745Z,1.30
2019-01-15T01:12:30.776Z,1.30
2019-01-15T01:13:30.681Z,1.20
2019-01-15T01:14:30.668Z,1.20
2019-01-15T01:15:30.661Z,1.10
2019-01-15T01:16:30.660Z,1.20
2019-01-15T01:17:30.657Z,1.20
2019-01-15T01:18:30.648Z,1.00
2019-01-15T01:19:30.658Z,1.00
2019-01-15T01:20:30.618Z,1.40
2019-01-15T01:21:30.588Z,1.10
2019-01-15T01:22:30.586Z,1.20
2019-01-15T01:23:30.575Z,1.10
2019-01-15T01:24:30.551Z,1.00
2019-01-15T01:25:30.570Z,1.10
2019-01-15T01:26:30.536Z,1.20
2019-01-15T01:27:30.546Z,1.20
2019-01-15T01:28:30.603Z,1.10
2019-01-15T01:29:30.497Z,1.40
2019-01-15T01:30:30.521Z,1.00
2019-01-15T01:31:30.473Z,1.10
2019-01-15T01:32:30.480Z,1.30
2019-01-15T01:33:30.487Z,1.20
2019-01-15T01:34:30.453Z,1.10
2019-01-15T01:35:30.439Z,1.10
2019-01-15T01:36:30.421Z,1.10
2019-01-15T01:37:30.408Z,1.20
2019-01-15T01:38:30.497Z,1.10
2019-01-15T01:39:30.399Z,1.00
2019-01-15T01:40:30.385Z,1.10
2019-01-15T01:41:30.360Z,1.20
2019-01-15T01:42:30.377Z,1.20
2019-01-15T01:43:30.344Z,1.10
2019-01-15T01:44:30.345Z,1.20
2019-01-15T01:45:30.318Z,1.20
2019-01-15T01:46:30.309Z,1.40
2019-01-15T01:47:30.299Z,1.10
2019-01-15T01:48:30.294Z,1.20
2019-01-15T01:49:30.298Z,1.20
2019-01-15T01:50:30.271Z,1.20
2019-01-15T01:51:30.249Z,1.00
2019-01-15T01:52:30.251Z,1.00
2019-01-15T01:53:30.265Z,1.00
2019-01-15T01:54:30.221Z,1.20
2019-01-15T01:55:30.200Z,1.40
2019-01-15T01:56:30.211Z,1.20
2019-01-15T01:57:30.219Z,1.00
2019-01-15T01:58:30.244Z,1.30
2019-01-15T01:59:30.158Z,1.30
2019-01-15T02:00:30.162Z,1.20
2019-01-15T02:01:30.150Z,1.30
2019-01-15T02:02:30.180Z,1.00
2019-01-15T02:03:30.189Z,1.20
2019-01-15T02:04:30.101Z,0.90
2019-01-15T02:05:30.235Z,1.20
2019-01-15T02:06:30.115Z,1.30
2019-01-15T02:07:30.088Z,1.40
2019-01-15T02:08:30.092Z,1.10
2019-01-15T02:09:30.092Z,1.20
2019-01-15T02:10:30.037Z,1.20
2019-01-15T02:11:30.059Z,1.20
2019-01-15T02:12:36.680Z,1.20
2019-01-15T02:13:31.020Z,1.30
2019-01-15T02:14:30.032Z,1.20
2019-01-15T02:15:29.999Z,1.20
2019-01-15T02:16:30.028Z,1.20
2019-01-15T02:17:29.967Z,1.10
2019-01-15T02:18:29.961Z,1.30
2019-01-15T02:19:29.936Z,1.20
2019-01-15T02:20:29.942Z,1.30
2019-01-15T02:21:29.917Z,1.20
2019-01-15T02:22:29.905Z,1.10
2019-01-15T02:23:29.928Z,1.20
2019-01-15T02:24:29.948Z,1.20
2019-01-15T02:25:29.889Z,1.20
2019-01-15T02:26:29.929Z,1.20
2019-01-15T02:27:29.846Z,1.30
2019-01-15T02:28:29.911Z,1.10
2019-01-15T02:29:29.882Z,1.10
2019-01-15T02:30:29.849Z,1.30
2019-01-15T02:31:29.808Z,1.20
2019-01-15T02:32:29.825Z,1.20
2019-01-15T02:33:29.831Z,1.10
2019-01-15T02:34:29.836Z,1.20
2019-01-15T02:35:29.870Z,1.20
2019-01-15T02:36:29.783Z,1.30
2019-01-15T02:37:29.744Z,1.10
2019-01-15T02:38:29.768Z,1.30
2019-01-15T02:39:29.714Z,1.30
2019-01-15T02:40:29.759Z,1.20
2019-01-15T02:41:29.779Z,1.10
2019-01-15T02:42:29.687Z,1.30
2019-01-15T02:43:29.699Z,1.10
2019-01-15T02:44:29.670Z,1.20
2019-01-15T02:45:29.660Z,1.30
2019-01-15T02:46:29.651Z,1.30
2019-01-15T02:47:29.642Z,1.30
2019-01-15T02:48:29.675Z,1.10
2019-01-15T02:49:29.612Z,1.10
2019-01-15T02:50:29.615Z,1.20
2019-01-15T02:51:29.622Z,1.20
2019-01-15T02:52:29.583Z,1.50
2019-01-15T02:53:29.580Z,1.10
2019-01-15T02:54:29.557Z,1.20
2019-01-15T02:55:29.612Z,1.30
2019-01-15T02:56:29.540Z,1.20
2019-01-15T02:57:29.522Z,1.30
2019-01-15T02:58:29.556Z,1.10
2019-01-15T02:59:29.518Z,1.20
2019-01-15T03:00:29.509Z,1.20
2019-01-15T03:01:29.511Z,1.40
2019-01-15T03:02:29.489Z,1.10
2019-01-15T03:03:29.511Z,1.10
2019-01-15T03:04:29.454Z,1.40
2019-01-15T03:05:29.595Z,1.20
2019-01-15T03:06:29.437Z,1.10
2019-01-15T03:07:29.419Z,1.10
2019-01-15T03:08:29.403Z,1.20
2019-01-15T03:09:29.380Z,1.10
2019-01-15T03:10:29.388Z,1.10
2019-01-15T03:11:29.374Z,1.10
2019-01-15T03:12:29.390Z,1.20
2019-01-15T03:13:29.356Z,1.30
2019-01-15T03:14:29.321Z,1.30
2019-01-15T03:15:29.312Z,1.40
2019-01-15T03:16:29.316Z,1.30
2019-01-15T03:17:29.292Z,1.30
2019-01-15T03:18:29.331Z,1.20
2019-01-15T03:19:29.269Z,1.30
2019-01-15T03:20:29.254Z,1.20
2019-01-15T03:21:29.253Z,1.40
2019-01-15T03:22:29.238Z,1.40
2019-01-15T03:23:29.237Z,1.30
2019-01-15T03:24:29.244Z,1.20
2019-01-15T03:25:29.203Z,1.20
2019-01-15T03:26:29.240Z,1.20
2019-01-15T03:27:29.187Z,1.40
2019-01-15T03:28:29.247Z,1.30
2019-01-15T03:29:29.203Z,1.30
2019-01-15T03:30:29.153Z,1.30
2019-01-15T03:31:29.171Z,1.20
2019-01-15T03:32:29.182Z,1.10
2019-01-15T03:33:29.170Z,1.30
2019-01-15T03:34:29.119Z,1.10
2019-01-15T03:35:29.099Z,1.30
2019-01-15T03:36:29.174Z,1.30
2019-01-15T03:37:29.081Z,1.50
2019-01-15T03:38:29.071Z,1.30
2019-01-15T03:39:29.110Z,1.40
2019-01-15T03:40:29.079Z,1.30
2019-01-15T03:41:29.041Z,1.20
2019-01-15T03:42:29.031Z,1.30
2019-01-15T03:43:29.063Z,1.10
2019-01-15T03:44:28.999Z,1.40
2019-01-15T03:45:29.044Z,1.20
2019-01-15T03:46:29.016Z,1.30
2019-01-15T03:47:28.955Z,1.30
2019-01-15T03:48:28.951Z,1.40
2019-01-15T03:49:28.954Z,1.20
2019-01-15T03:50:28.988Z,1.30
2019-01-15T03:51:30.475Z,1.40
2019-01-15T03:52:28.944Z,1.20
2019-01-15T03:53:28.890Z,1.50
2019-01-15T03:54:28.961Z,1.10
2019-01-15T03:55:28.911Z,1.40
2019-01-15T03:56:28.900Z,1.30
2019-01-15T03:57:28.850Z,1.20
2019-01-15T03:58:28.856Z,1.30
2019-01-15T03:59:28.846Z,1.30
2019-01-15T04:00:28.816Z,1.20
2019-01-15T04:01:28.824Z,1.20
2019-01-15T04:02:28.790Z,1.30
2019-01-15T04:03:28.796Z,1.30
2019-01-15T04:04:28.775Z,1.30
2019-01-15T04:05:28.781Z,1.30
2019-01-15T04:06:28.849Z,1.50
2019-01-15T04:07:28.770Z,1.30
2019-01-15T04:08:28.762Z,1.40
2019-01-15T04:09:28.725Z,1.20
2019-01-15T04:10:28.705Z,1.30
2019-01-15T04:11:28.696Z,1.40
2019-01-15T04:12:28.729Z,1.30
2019-01-15T04:13:28.697Z,1.20
2019-01-15T04:14:28.692Z,1.20
2019-01-15T04:15:28.685Z,1.40
2019-01-15T04:16:28.664Z,1.30
2019-01-15T04:17:28.654Z,1.10
2019-01-15T04:18:28.622Z,1.20
2019-01-15T04:19:28.641Z,1.10
2019-01-15T04:20:28.587Z,1.40
2019-01-15T04:21:28.590Z,1.40
2019-01-15T04:22:28.573Z,1.20
2019-01-15T04:23:28.558Z,1.30
2019-01-15T04:24:28.631Z,1.20
2019-01-15T04:25:28.599Z,1.30
2019-01-15T04:26:28.524Z,1.30
2019-01-15T04:27:28.508Z,1.10
2019-01-15T04:28:28.505Z,1.30
2019-01-15T04:29:28.496Z,1.20
2019-01-15T04:30:28.513Z,1.30
2019-01-15T04:31:28.498Z,1.50
2019-01-15T04:32:28.488Z,1.30
2019-01-15T04:33:28.448Z,1.10
2019-01-15T04:34:28.477Z,1.20
2019-01-15T04:35:28.436Z,1.30
2019-01-15T04:36:28.419Z,1.30
2019-01-15T04:37:28.399Z,1.30
2019-01-15T04:38:28.438Z,1.20
2019-01-15T04:39:28.388Z,1.40
2019-01-15T04:40:28.377Z,1.20
2019-01-15T04:41:28.390Z,1.40
2019-01-15T04:42:28.352Z,1.30
2019-01-15T04:43:28.361Z,1.20
2019-01-15T04:44:28.335Z,1.30
2019-01-15T04:45:28.380Z,1.20
2019-01-15T04:46:28.364Z,1.20
2019-01-15T04:47:28.349Z,1.20
2019-01-15T04:48:28.336Z,1.30
2019-01-15T04:49:28.296Z,1.20
2019-01-15T04:50:28.295Z,1.30
2019-01-15T04:51:28.255Z,1.20
2019-01-15T04:52:28.238Z,1.20
2019-01-15T04:53:28.297Z,1.40
2019-01-15T04:54:28.237Z,1.20
2019-01-15T04:55:28.270Z,1.30
2019-01-15T04:56:28.201Z,1.40
2019-01-15T04:57:28.184Z,1.20
2019-01-15T04:58:28.189Z,1.30
2019-01-15T04:59:28.155Z,1.30
2019-01-15T05:00:28.221Z,1.10
2019-01-15T05:01:28.265Z,1.30
2019-01-15T05:02:28.173Z,1.30
2019-01-15T05:03:28.141Z,1.10
2019-01-15T05:04:28.102Z,1.40
2019-01-15T05:05:28.131Z,1.10
2019-01-15T05:06:28.240Z,1.50
2019-01-15T05:07:28.180Z,1.20
2019-01-15T05:08:28.153Z,1.10
2019-01-15T05:09:28.063Z,1.30
2019-01-15T05:10:28.051Z,1.20
2019-01-15T05:11:28.018Z,1.40
2019-01-15T05:12:28.062Z,1.20
2019-01-15T05:13:28.025Z,1.30
2019-01-15T05:14:27.992Z,1.30
2019-01-15T05:15:27.989Z,1.30
2019-01-15T05:16:28.025Z,1.50
2019-01-15T05:17:27.960Z,1.10
2019-01-15T05:18:27.967Z,1.20
2019-01-15T05:19:27.945Z,1.30
2019-01-15T05:20:27.966Z,1.10
2019-01-15T05:21:27.926Z,1.40
2019-01-15T05:22:27.950Z,1.40
2019-01-15T05:23:27.904Z,1.30
2019-01-15T05:24:27.887Z,1.10
2019-01-15T05:25:27.931Z,1.20
2019-01-15T05:26:28.360Z,1.30
2019-01-15T05:27:27.851Z,1.30
2019-01-15T05:28:27.837Z,1.30
2019-01-15T05:29:27.831Z,1.10
2019-01-15T05:30:27.900Z,1.30
2019-01-15T05:31:27.798Z,1.20
2019-01-15T05:32:27.807Z,1.30
2019-01-15T05:33:27.802Z,1.20
2019-01-15T05:34:27.791Z,1.40
2019-01-15T05:35:27.814Z,1.30
2019-01-15T05:36:27.773Z,1.50
2019-01-15T05:37:27.745Z,2.60
2019-01-15T05:38:27.739Z,3.00
2019-01-15T05:39:27.734Z,3.10
2019-01-15T05:40:27.725Z,3.50
2019-01-15T05:41:27.757Z,3.30
2019-01-15T05:42:27.747Z,3.20
2019-01-15T05:43:35.265Z,3.60
2019-01-15T05:44:28.692Z,3.50
2019-01-15T05:45:27.685Z,3.00
2019-01-15T05:46:27.648Z,2.10
2019-01-15T05:47:27.703Z,3.30
2019-01-15T05:48:27.628Z,3.80
2019-01-15T05:49:27.643Z,3.10
2019-01-15T05:50:27.601Z,3.20
2019-01-15T05:51:27.743Z,3.70
2019-01-15T05:52:27.568Z,3.80
2019-01-15T05:53:27.574Z,3.40
2019-01-15T05:54:27.601Z,4.40
2019-01-15T05:55:27.540Z,4.30
2019-01-15T05:56:27.586Z,4.30
2019-01-15T05:57:27.527Z,4.00
2019-01-15T05:58:27.516Z,3.90
2019-01-15T05:59:27.499Z,3.80
2019-01-15T06:00:27.511Z,4.00
2019-01-15T06:01:27.528Z,4.50
2019-01-15T06:02:27.498Z,4.30
2019-01-15T06:03:27.480Z,4.40
2019-01-15T06:04:27.436Z,4.20
2019-01-15T06:05:27.430Z,3.90
2019-01-15T06:06:27.474Z,4.40
2019-01-15T06:07:33.644Z,4.70
2019-01-15T06:08:28.425Z,4.40
2019-01-15T06:09:27.374Z,4.00
2019-01-15T06:10:27.400Z,4.00
2019-01-15T06:11:27.405Z,3.50
2019-01-15T06:12:27.363Z,2.80
2019-01-15T06:13:27.336Z,2.10
2019-01-15T06:14:27.324Z,2.30
2019-01-15T06:15:27.321Z,2.50
2019-01-15T06:16:27.313Z,2.40
2019-01-15T06:17:27.293Z,2.30
2019-01-15T06:18:27.291Z,2.10
2019-01-15T06:19:27.269Z,2.30
2019-01-15T06:20:27.255Z,2.40
2019-01-15T06:21:27.250Z,1.90
2019-01-15T06:22:27.263Z,2.00
2019-01-15T06:23:27.223Z,2.10
2019-01-15T06:24:27.211Z,2.10
2019-01-15T06:25:27.225Z,2.00
2019-01-15T06:26:27.206Z,2.10
2019-01-15T06:27:28.256Z,1.90
2019-01-15T06:28:27.162Z,2.20
2019-01-15T06:29:27.179Z,1.80
2019-01-15T06:30:27.157Z,1.90
2019-01-15T06:31:27.166Z,1.80
2019-01-15T06:32:27.125Z,1.90
2019-01-15T06:33:27.119Z,1.70
2019-01-15T06:34:27.135Z,1.90
2019-01-15T06:35:27.122Z,1.90
2019-01-15T06:36:31.860Z,1.80
2019-01-15T06:37:27.074Z,2.10
2019-01-15T06:38:27.200Z,1.80
2019-01-15T06:39:27.057Z,2.10
2019-01-15T06:40:27.123Z,1.90
2019-01-15T06:41:27.427Z,1.70
2019-01-15T06:42:27.024Z,1.90
2019-01-15T06:43:27.078Z,1.70
2019-01-15T06:44:26.991Z,1.70
2019-01-15T06:45:26.976Z,1.70
2019-01-15T06:46:26.993Z,1.90
2019-01-15T06:47:27.034Z,1.70
2019-01-15T06:48:26.966Z,1.80
2019-01-15T06:49:27.007Z,1.80
2019-01-15T06:50:26.917Z,1.50
2019-01-15T06:51:26.923Z,1.70
2019-01-15T06:52:26.908Z,1.70
2019-01-15T06:53:26.941Z,1.60
2019-01-15T06:54:27.014Z,1.90
2019-01-15T06:55:26.997Z,1.60
2019-01-15T06:56:26.860Z,1.80
2019-01-15T06:57:26.866Z,2.20
2019-01-15T06:58:26.841Z,1.70
2019-01-15T06:59:26.821Z,1.40
2019-01-15T07:00:26.813Z,1.90
2019-01-15T07:01:26.814Z,1.50
2019-01-15T07:02:26.805Z,1.50
2019-01-15T07:03:26.798Z,1.60
2019-01-15T07:04:26.792Z,1.40
2019-01-15T07:05:26.809Z,1.60
2019-01-15T07:06:26.859Z,1.60
2019-01-15T07:07:26.748Z,1.60
2019-01-15T07:08:26.765Z,1.60
2019-01-15T07:09:26.729Z,1.80
2019-01-15T07:10:26.744Z,1.40
2019-01-15T07:11:26.819Z,1.60
2019-01-15T07:12:26.688Z,1.40
2019-01-15T07:13:26.678Z,1.60
2019-01-15T07:14:26.662Z,1.60
2019-01-15T07:15:26.729Z,1.50
2019-01-15T07:16:26.631Z,1.30
2019-01-15T07:17:26.641Z,1.40
2019-01-15T07:18:26.609Z,1.60
2019-01-15T07:19:26.598Z,1.50
2019-01-15T07:20:26.632Z,1.50
2019-01-15T07:21:26.587Z,1.40
2019-01-15T07:22:26.583Z,1.30
2019-01-15T07:23:26.613Z,1.40
2019-01-15T07:24:26.595Z,1.40
2019-01-15T07:25:26.536Z,1.50
2019-01-15T07:26:26.540Z,1.30
2019-01-15T07:27:26.547Z,1.20
2019-01-15T07:28:26.569Z,1.40
2019-01-15T07:29:26.526Z,1.30
2019-01-15T07:30:26.518Z,1.30
2019-01-15T07:31:26.465Z,1.30
2019-01-15T07:32:26.452Z,1.10
2019-01-15T07:33:26.457Z,1.10
2019-01-15T07:34:26.485Z,1.20
2019-01-15T07:35:26.423Z,1.50
2019-01-15T07:36:26.533Z,1.20
2019-01-15T07:37:26.413Z,1.40
2019-01-15T07:38:26.424Z,1.30
2019-01-15T07:39:26.385Z,1.10
2019-01-15T07:40:26.377Z,1.20
2019-01-15T07:41:26.355Z,1.20
2019-01-15T07:42:26.363Z,1.30
2019-01-15T07:43:26.359Z,1.20
2019-01-15T07:44:26.385Z,1.20
2019-01-15T07:45:26.333Z,1.30
2019-01-15T07:46:26.308Z,1.20
2019-01-15T07:47:26.286Z,1.10
2019-01-15T07:48:26.334Z,1.20
2019-01-15T07:49:26.352Z,1.20
2019-01-15T07:50:26.269Z,1.10
2019-01-15T07:51:26.241Z,1.00
2019-01-15T07:52:26.271Z,1.00
2019-01-15T07:53:26.361Z,1.10
2019-01-15T07:54:26.234Z,0.90
2019-01-15T07:55:26.204Z,1.10
2019-01-15T07:56:26.190Z,1.30
2019-01-15T07:57:26.188Z,1.10
2019-01-15T07:58:26.182Z,1.10
2019-01-15T07:59:26.164Z,1.10
2019-01-15T08:00:26.159Z,0.90
2019-01-15T08:01:26.140Z,1.00
2019-01-15T08:02:26.170Z,1.00
2019-01-15T08:03:26.165Z,1.00
2019-01-15T08:04:26.130Z,1.00
2019-01-15T08:05:26.093Z,1.00
2019-01-15T08:06:27.783Z,1.20
2019-01-15T08:07:26.108Z,1.20
2019-01-15T08:08:26.065Z,0.90
2019-01-15T08:09:26.071Z,1.10
2019-01-15T08:10:26.043Z,1.00
2019-01-15T08:11:26.026Z,1.10
2019-01-15T08:12:26.180Z,1.00
2019-01-15T08:13:26.012Z,1.00
2019-01-15T08:14:26.041Z,1.10
2019-01-15T08:15:26.028Z,1.00
2019-01-15T08:16:25.984Z,1.10
2019-01-15T08:17:26.285Z,1.00
2019-01-15T08:18:25.956Z,1.10
2019-01-15T08:19:25.943Z,1.00
2019-01-15T08:20:25.954Z,1.00
2019-01-15T08:21:25.907Z,1.00
2019-01-15T08:22:25.898Z,1.00
2019-01-15T08:23:25.891Z,1.00
2019-01-15T08:24:25.898Z,1.00
2019-01-15T08:25:25.876Z,1.10
2019-01-15T08:26:25.854Z,1.30
2019-01-15T08:27:25.876Z,1.00
2019-01-15T08:28:25.849Z,1.10
2019-01-15T08:29:25.835Z,1.00
2019-01-15T08:30:25.820Z,1.10
2019-01-15T08:31:25.798Z,1.10
2019-01-15T08:32:25.804Z,1.10
2019-01-15T08:33:25.783Z,0.90
2019-01-15T08:34:25.790Z,1.10
2019-01-15T08:35:25.795Z,1.20
2019-01-15T08:36:25.876Z,1.20
2019-01-15T08:37:25.768Z,1.00
2019-01-15T08:38:25.746Z,1.00
2019-01-15T08:39:25.732Z,1.40
2019-01-15T08:40:25.765Z,1.40
2019-01-15T08:41:25.886Z,1.30
2019-01-15T08:42:25.701Z,1.10
2019-01-15T08:43:25.690Z,1.10
2019-01-15T08:44:25.720Z,1.30
2019-01-15T08:45:25.651Z,1.10
2019-01-15T08:46:25.631Z,1.10
2019-01-15T08:47:25.620Z,1.10
2019-01-15T08:48:25.622Z,1.30
2019-01-15T08:49:25.722Z,1.10
2019-01-15T08:50:25.598Z,1.20
2019-01-15T08:51:25.596Z,1.30
2019-01-15T08:52:25.619Z,1.20
2019-01-15T08:53:25.565Z,1.40
2019-01-15T08:54:26.375Z,1.30
2019-01-15T08:55:25.611Z,1.40
2019-01-15T08:56:25.538Z,1.40
2019-01-15T08:57:25.555Z,1.30
2019-01-15T08:58:25.519Z,1.20
2019-01-15T08:59:25.555Z,1.30
2019-01-15T09:00:25.663Z,1.30
2019-01-15T09:01:25.470Z,1.50
2019-01-15T09:02:25.456Z,1.30
2019-01-15T09:03:25.485Z,1.20
2019-01-15T09:04:25.549Z,1.20
2019-01-15T09:05:25.467Z,1.00
2019-01-15T09:06:25.435Z,1.40
2019-01-15T09:07:25.400Z,1.30
2019-01-15T09:08:25.386Z,1.20
2019-01-15T09:09:25.389Z,1.20
2019-01-15T09:10:25.387Z,1.30
2019-01-15T09:11:25.358Z,1.10
2019-01-15T09:12:25.341Z,1.10
2019-01-15T09:13:25.363Z,1.20
2019-01-15T09:14:27.033Z,1.30
2019-01-15T09:15:25.331Z,1.30
2019-01-15T09:16:25.299Z,1.30
2019-01-15T09:17:25.376Z,1.20
2019-01-15T09:18:25.303Z,1.20
2019-01-15T09:19:25.270Z,1.20
2019-01-15T09:20:25.309Z,1.30
2019-01-15T09:21:25.294Z,1.00
2019-01-15T09:22:25.249Z,1.40
2019-01-15T09:23:25.318Z,1.30
2019-01-15T09:24:25.248Z,1.50
2019-01-15T09:25:25.224Z,1.30
2019-01-15T09:26:25.191Z,1.60
2019-01-15T09:27:25.189Z,1.40
2019-01-15T09:28:25.201Z,1.30
2019-01-15T09:29:25.179Z,1.20
2019-01-15T09:30:25.217Z,1.40
2019-01-15T09:31:25.190Z,1.20
2019-01-15T09:32:25.149Z,1.10
2019-01-15T09:33:25.138Z,1.20
2019-01-15T09:34:25.185Z,1.20
2019-01-15T09:35:25.139Z,1.30
2019-01-15T09:36:25.134Z,1.30
2019-01-15T09:37:25.064Z,1.30
2019-01-15T09:38:25.069Z,1.30
2019-01-15T09:39:25.045Z,1.40
2019-01-15T09:40:25.046Z,1.30
2019-01-15T09:41:25.026Z,1.40
2019-01-15T09:42:25.010Z,1.40
2019-01-15T09:43:25.018Z,1.40
2019-01-15T09:44:25.000Z,1.40
2019-01-15T09:45:24.988Z,1.60
2019-01-15T09:46:24.982Z,1.30
2019-01-15T09:47:24.966Z,1.50
2019-01-15T09:48:24.948Z,1.50
2019-01-15T09:49:25.012Z,1.60
2019-01-15T09:50:24.926Z,1.50
2019-01-15T09:51:24.954Z,1.70
2019-01-15T09:52:24.896Z,2.10
2019-01-15T09:53:24.888Z,1.70
2019-01-15T09:54:24.883Z,1.80
2019-01-15T09:55:24.918Z,1.70
2019-01-15T09:56:24.907Z,1.80
2019-01-15T09:57:24.847Z,1.80
2019-01-15T09:58:24.939Z,1.80
2019-01-15T09:59:24.838Z,1.90
2019-01-15T10:00:24.865Z,1.50
2019-01-15T10:01:24.862Z,1.80
2019-01-15T10:02:24.809Z,1.80
2019-01-15T10:03:24.893Z,1.80
2019-01-15T10:04:24.767Z,2.10
2019-01-15T10:05:24.778Z,1.90
2019-01-15T10:06:24.853Z,1.70
2019-01-15T10:07:24.754Z,1.80
2019-01-15T10:08:24.725Z,1.70
2019-01-15T10:09:24.766Z,1.80
2019-01-15T10:10:24.796Z,1.60
2019-01-15T10:11:24.712Z,1.90
2019-01-15T10:12:24.754Z,1.70
2019-01-15T10:13:24.772Z,2.00
2019-01-15T10:14:24.713Z,1.90
2019-01-15T10:15:24.683Z,1.80
2019-01-15T10:16:24.674Z,1.70
2019-01-15T10:17:24.751Z,1.70
2019-01-15T10:18:24.699Z,2.00
2019-01-15T10:19:24.616Z,1.80
2019-01-15T10:20:24.601Z,1.80
2019-01-15T10:21:24.636Z,1.60
2019-01-15T10:22:24.639Z,1.80
2019-01-15T10:23:24.553Z,1.80
2019-01-15T10:24:24.553Z,2.10
2019-01-15T10:25:24.564Z,1.70
2019-01-15T10:26:24.529Z,1.80
2019-01-15T10:27:24.535Z,1.70
2019-01-15T10:28:24.502Z,1.70
2019-01-15T10:29:24.514Z,1.80
2019-01-15T10:30:24.523Z,1.70
2019-01-15T10:31:24.487Z,1.60
2019-01-15T10:32:24.454Z,1.60
2019-01-15T10:33:24.487Z,1.60
2019-01-15T10:34:24.473Z,1.70
2019-01-15T10:35:24.448Z,1.90
2019-01-15T10:36:24.454Z,1.60
2019-01-15T10:37:24.482Z,1.80
2019-01-15T10:38:24.470Z,1.80
2019-01-15T10:39:24.407Z,1.90
2019-01-15T10:40:24.386Z,1.60
2019-01-15T10:41:24.458Z,1.90
2019-01-15T10:42:24.360Z,1.90
2019-01-15T10:43:24.373Z,1.70
2019-01-15T10:44:24.321Z,1.80
2019-01-15T10:45:24.443Z,1.80
2019-01-15T10:46:24.949Z,1.60
2019-01-15T10:47:24.312Z,1.70
2019-01-15T10:48:24.351Z,1.70
2019-01-15T10:49:24.301Z,1.80
2019-01-15T10:50:24.353Z,1.70
2019-01-15T10:51:24.262Z,1.80
2019-01-15T10:52:24.256Z,1.90
2019-01-15T10:53:24.293Z,2.00
2019-01-15T10:54:24.340Z,1.80
2019-01-15T10:55:24.217Z,1.60
2019-01-15T10:56:24.198Z,1.70
2019-01-15T10:57:24.244Z,1.60
2019-01-15T10:58:24.222Z,1.70
2019-01-15T10:59:24.176Z,1.80
2019-01-15T11:00:24.179Z,1.90
2019-01-15T11:01:24.147Z,1.70
2019-01-15T11:02:24.129Z,1.80
2019-01-15T11:03:24.164Z,1.70
2019-01-15T11:04:24.102Z,2.20
2019-01-15T11:05:24.109Z,3.50
2019-01-15T11:06:24.205Z,3.60
2019-01-15T11:07:24.107Z,3.80
2019-01-15T11:08:24.079Z,4.10
2019-01-15T11:09:24.053Z,3.50
2019-01-15T11:10:24.034Z,2.50
2019-01-15T11:11:24.026Z,2.10
2019-01-15T11:12:24.023Z,1.90
2019-01-15T11:13:24.037Z,1.70
2019-01-15T11:14:24.005Z,2.00
2019-01-15T11:15:24.062Z,2.00
2019-01-15T11:16:24.146Z,1.80
2019-01-15T11:17:23.981Z,1.90
2019-01-15T11:18:23.957Z,1.70
2019-01-15T11:19:23.948Z,2.00
2019-01-15T11:20:24.003Z,1.90
2019-01-15T11:21:23.941Z,2.00
2019-01-15T11:22:24.929Z,1.90
2019-01-15T11:23:23.998Z,1.70
2019-01-15T11:24:23.940Z,1.90
2019-01-15T11:25:23.949Z,1.90
2019-01-15T11:26:23.950Z,1.80
2019-01-15T11:27:23.950Z,2.00
2019-01-15T11:28:23.958Z,2.00
2019-01-15T11:29:23.883Z,1.80
2019-01-15T11:30:23.895Z,1.70
2019-01-15T11:31:24.010Z,1.70
2019-01-15T11:32:23.831Z,1.70
2019-01-15T11:33:23.856Z,1.90
2019-01-15T11:34:23.769Z,2.10
2019-01-15T11:35:23.804Z,1.70
2019-01-15T11:36:23.860Z,1.70
2019-01-15T11:37:23.742Z,1.80
2019-01-15T11:38:23.730Z,1.70
2019-01-15T11:39:23.721Z,1.60
2019-01-15T11:40:23.716Z,1.80
2019-01-15T11:41:23.728Z,1.90
2019-01-15T11:42:23.737Z,2.00
2019-01-15T11:43:23.673Z,1.70
2019-01-15T11:44:23.685Z,1.80
2019-01-15T11:45:23.708Z,2.00
2019-01-15T11:46:23.644Z,1.60
2019-01-15T11:47:23.630Z,1.60
2019-01-15T11:48:23.619Z,1.80
2019-01-15T11:49:23.627Z,1.80
2019-01-15T11:50:23.650Z,1.70
2019-01-15T11:51:23.592Z,2.00
2019-01-15T11:52:23.580Z,1.70
2019-01-15T11:53:23.569Z,2.00
2019-01-15T11:54:23.566Z,1.60
2019-01-15T11:55:23.596Z,1.80
2019-01-15T11:56:23.551Z,1.60
2019-01-15T11:57:23.529Z,1.50
2019-01-15T11:58:23.513Z,1.50
2019-01-15T11:59:23.497Z,1.20
2019-01-15T12:00:23.488Z,1.20
2019-01-15T12:01:23.497Z,1.40
2019-01-15T12:02:23.475Z,1.40
2019-01-15T12:03:23.467Z,1.30
2019-01-15T12:04:23.443Z,1.40
2019-01-15T12:05:23.437Z,1.20
2019-01-15T12:06:24.632Z,1.30
2019-01-15T12:07:23.720Z,1.30
2019-01-15T12:08:45.871Z,1.30
2019-01-15T12:09:24.730Z,1.30
2019-01-15T12:10:26.140Z,1.20
2019-01-15T12:11:23.881Z,1.10
2019-01-15T12:12:23.567Z,1.00
2019-01-15T12:13:23.741Z,1.00
2019-01-15T12:14:23.689Z,1.20
2019-01-15T12:15:23.544Z,1.00
2019-01-15T12:16:23.375Z,0.70
2019-01-15T12:17:23.698Z,0.90
2019-01-15T12:18:23.311Z,1.00
2019-01-15T12:19:23.286Z,0.90
2019-01-15T12:20:23.282Z,0.90
2019-01-15T12:21:23.299Z,0.80
2019-01-15T12:22:23.272Z,0.90
2019-01-15T12:23:23.229Z,1.00
2019-01-15T12:24:23.227Z,0.90
2019-01-15T12:25:23.249Z,0.90
2019-01-15T12:26:23.196Z,0.90
2019-01-15T12:27:23.348Z,0.90
2019-01-15T12:28:23.188Z,0.60
2019-01-15T12:29:23.161Z,0.70
2019-01-15T12:30:23.190Z,0.80
2019-01-15T12:31:23.142Z,0.70
2019-01-15T12:32:23.134Z,0.70
2019-01-15T12:33:23.133Z,0.80
2019-01-15T12:34:23.162Z,0.80
2019-01-15T12:35:23.121Z,1.00
2019-01-15T12:36:23.089Z,0.90
2019-01-15T12:37:23.080Z,0.80
2019-01-15T12:38:23.081Z,0.80
2019-01-15T12:39:23.118Z,0.90
2019-01-15T12:40:23.103Z,0.80
2019-01-15T12:41:23.054Z,0.80
2019-01-15T12:42:23.077Z,0.70
2019-01-15T12:43:23.012Z,0.80
2019-01-15T12:44:23.018Z,0.80
2019-01-15T12:45:23.086Z,0.70
2019-01-15T12:46:23.061Z,0.70
2019-01-15T12:47:23.010Z,0.60
2019-01-15T12:48:22.966Z,0.70
2019-01-15T12:49:22.947Z,0.70
2019-01-15T12:50:22.936Z,0.80
2019-01-15T12:51:22.933Z,0.80
2019-01-15T12:52:22.914Z,0.70
2019-01-15T12:53:22.900Z,0.70
2019-01-15T12:54:22.895Z,0.90
2019-01-15T12:55:22.938Z,0.90
2019-01-15T12:56:22.920Z,0.80
2019-01-15T12:57:22.866Z,1.00
2019-01-15T12:58:22.939Z,0.90
2019-01-15T12:59:22.832Z,0.70
2019-01-15T13:00:22.849Z,0.80
2019-01-15T13:01:22.816Z,0.80
2019-01-15T13:02:22.874Z,0.90
2019-01-15T13:03:22.795Z,1.00
2019-01-15T13:04:22.786Z,0.90
2019-01-15T13:05:22.782Z,0.90
2019-01-15T13:06:22.779Z,0.90
2019-01-15T13:07:22.773Z,0.70
2019-01-15T13:08:22.763Z,0.90
2019-01-15T13:09:22.747Z,0.80
2019-01-15T13:10:22.752Z,0.80
2019-01-15T13:11:22.711Z,1.00
2019-01-15T13:12:22.689Z,1.00
2019-01-15T13:13:22.688Z,1.20
2019-01-15T13:14:22.665Z,1.00
2019-01-15T13:15:29.397Z,0.80
2019-01-15T13:16:23.680Z,1.00
2019-01-15T13:17:22.665Z,0.90
2019-01-15T13:18:22.635Z,0.80